sensor_id;sensor_type;location;lat;lon;timestamp;temperature;humidity
64634;DHT22;51043;52.406;9.690;2024-01-07T00:01:36;-0.50;99.90
64634;DHT22;51043;52.406;9.690;2024-01-07T00:04:05;-0.60;99.90
64634;DHT22;51043;52.406;9.690;2024-01-07T00:06:37;-0.60;99.90
64634;DHT22;51043;52.406;9.690;2024-01-07T00:09:05;-0.60;99.90
64634;DHT22;51043;52.406;9.690;2024-01-07T00:11:33;-0.50;99.90
64634;DHT22;51043;52.406;9.690;2024-01-07T00:14:02;-0.60;99.90
64634;DHT22;51043;52.406;9.690;2024-01-07T00:16:31;-0.50;99.90
64634;DHT22;51043;52.406;9.690;2024-01-07T00:18:59;-0.60;99.90
64634;DHT22;51043;52.406;9.690;2024-01-07T00:21:27;-0.60;99.90
64634;DHT22;51043;52.406;9.690;2024-01-07T00:23:57;-0.60;99.90
64634;DHT22;51043;52.406;9.690;2024-01-07T00:26:25;-0.70;99.90
64634;DHT22;51043;52.406;9.690;2024-01-07T00:28:53;-0.70;99.90
64634;DHT22;51043;52.406;9.690;2024-01-07T00:31:21;-0.80;99.90
64634;DHT22;51043;52.406;9.690;2024-01-07T00:33:49;-0.70;99.90
64634;DHT22;51043;52.406;9.690;2024-01-07T00:36:18;-0.70;99.90
64634;DHT22;51043;52.406;9.690;2024-01-07T00:38:46;-0.70;99.90
64634;DHT22;51043;52.406;9.690;2024-01-07T00:41:15;-0.80;99.90
64634;DHT22;51043;52.406;9.690;2024-01-07T00:43:43;-0.80;99.90
64634;DHT22;51043;52.406;9.690;2024-01-07T00:46:11;-0.80;99.90
64634;DHT22;51043;52.406;9.690;2024-01-07T00:48:40;-0.80;99.90
64634;DHT22;51043;52.406;9.690;2024-01-07T00:51:08;-0.80;99.90
64634;DHT22;51043;52.406;9.690;2024-01-07T00:53:37;-0.80;99.90
64634;DHT22;51043;52.406;9.690;2024-01-07T00:56:06;-0.80;99.90
64634;DHT22;51043;52.406;9.690;2024-01-07T00:58:37;-0.80;99.90
64634;DHT22;51043;52.406;9.690;2024-01-07T01:01:06;-0.80;99.90
64634;DHT22;51043;52.406;9.690;2024-01-07T01:03:35;-0.90;99.90
64634;DHT22;51043;52.406;9.690;2024-01-07T01:06:03;-0.90;99.90
64634;DHT22;51043;52.406;9.690;2024-01-07T01:08:31;-0.90;99.90
64634;DHT22;51043;52.406;9.690;2024-01-07T01:10:59;-0.80;99.90
64634;DHT22;51043;52.406;9.690;2024-01-07T01:13:27;-0.90;99.90
64634;DHT22;51043;52.406;9.690;2024-01-07T01:15:57;-0.90;99.90
64634;DHT22;51043;52.406;9.690;2024-01-07T01:18:28;-0.90;99.90
64634;DHT22;51043;52.406;9.690;2024-01-07T01:20:56;-0.90;99.90
64634;DHT22;51043;52.406;9.690;2024-01-07T01:23:33;-0.90;99.90
64634;DHT22;51043;52.406;9.690;2024-01-07T01:26:02;-0.90;99.90
64634;DHT22;51043;52.406;9.690;2024-01-07T01:28:30;-0.90;99.90
64634;DHT22;51043;52.406;9.690;2024-01-07T01:30:59;-0.90;99.90
64634;DHT22;51043;52.406;9.690;2024-01-07T01:33:28;-0.90;99.90
64634;DHT22;51043;52.406;9.690;2024-01-07T01:35:57;-1.00;99.90
64634;DHT22;51043;52.406;9.690;2024-01-07T01:38:28;-0.90;99.90
64634;DHT22;51043;52.406;9.690;2024-01-07T01:40:56;-1.00;99.90
64634;DHT22;51043;52.406;9.690;2024-01-07T01:43:29;-1.00;99.90
64634;DHT22;51043;52.406;9.690;2024-01-07T01:45:59;-1.00;99.90
64634;DHT22;51043;52.406;9.690;2024-01-07T01:48:30;-0.90;99.90
64634;DHT22;51043;52.406;9.690;2024-01-07T01:50:58;-0.90;99.90
64634;DHT22;51043;52.406;9.690;2024-01-07T01:53:27;-1.00;99.90
64634;DHT22;51043;52.406;9.690;2024-01-07T01:56:01;-0.90;99.90
64634;DHT22;51043;52.406;9.690;2024-01-07T01:58:31;-0.90;99.90
64634;DHT22;51043;52.406;9.690;2024-01-07T02:01:04;-0.90;99.90
64634;DHT22;51043;52.406;9.690;2024-01-07T02:03:33;-1.00;99.90
64634;DHT22;51043;52.406;9.690;2024-01-07T02:06:01;-1.00;99.90
64634;DHT22;51043;52.406;9.690;2024-01-07T02:08:30;-1.00;99.90
64634;DHT22;51043;52.406;9.690;2024-01-07T02:10:59;-1.10;99.90
64634;DHT22;51043;52.406;9.690;2024-01-07T02:13:41;-1.10;99.90
64634;DHT22;51043;52.406;9.690;2024-01-07T02:16:11;-1.20;99.90
64634;DHT22;51043;52.406;9.690;2024-01-07T02:18:41;-1.20;99.90
64634;DHT22;51043;52.406;9.690;2024-01-07T02:21:14;-1.20;99.90
64634;DHT22;51043;52.406;9.690;2024-01-07T02:23:43;-1.20;99.90
64634;DHT22;51043;52.406;9.690;2024-01-07T02:26:13;-1.30;99.90
64634;DHT22;51043;52.406;9.690;2024-01-07T02:28:42;-1.20;99.90
64634;DHT22;51043;52.406;9.690;2024-01-07T02:31:10;-1.20;99.90
64634;DHT22;51043;52.406;9.690;2024-01-07T02:33:38;-1.30;99.90
64634;DHT22;51043;52.406;9.690;2024-01-07T02:36:07;-1.30;99.90
64634;DHT22;51043;52.406;9.690;2024-01-07T02:38:35;-1.20;99.90
64634;DHT22;51043;52.406;9.690;2024-01-07T02:41:03;-1.20;99.90
64634;DHT22;51043;52.406;9.690;2024-01-07T02:43:33;-1.20;99.90
64634;DHT22;51043;52.406;9.690;2024-01-07T02:46:01;-1.30;99.90
64634;DHT22;51043;52.406;9.690;2024-01-07T02:48:29;-1.30;99.90
64634;DHT22;51043;52.406;9.690;2024-01-07T02:50:58;-1.30;99.90
64634;DHT22;51043;52.406;9.690;2024-01-07T02:53:29;-1.30;99.90
64634;DHT22;51043;52.406;9.690;2024-01-07T02:55:59;-1.20;99.90
64634;DHT22;51043;52.406;9.690;2024-01-07T02:58:30;-1.30;99.90
64634;DHT22;51043;52.406;9.690;2024-01-07T03:01:00;-1.30;99.90
64634;DHT22;51043;52.406;9.690;2024-01-07T03:03:31;-1.30;99.90
64634;DHT22;51043;52.406;9.690;2024-01-07T03:05:59;-1.30;99.90
64634;DHT22;51043;52.406;9.690;2024-01-07T03:08:27;-1.40;99.90
64634;DHT22;51043;52.406;9.690;2024-01-07T03:11:04;-1.40;99.90
64634;DHT22;51043;52.406;9.690;2024-01-07T03:13:33;-1.40;99.90
64634;DHT22;51043;52.406;9.690;2024-01-07T03:16:03;-1.40;99.90
64634;DHT22;51043;52.406;9.690;2024-01-07T03:18:34;-1.40;99.90
64634;DHT22;51043;52.406;9.690;2024-01-07T03:21:03;-1.40;99.90
64634;DHT22;51043;52.406;9.690;2024-01-07T03:23:32;-1.40;99.90
64634;DHT22;51043;52.406;9.690;2024-01-07T03:26:00;-1.40;99.90
64634;DHT22;51043;52.406;9.690;2024-01-07T03:28:28;-1.40;99.90
64634;DHT22;51043;52.406;9.690;2024-01-07T03:30:56;-1.40;99.90
64634;DHT22;51043;52.406;9.690;2024-01-07T03:33:25;-1.40;99.90
64634;DHT22;51043;52.406;9.690;2024-01-07T03:35:53;-1.50;99.90
64634;DHT22;51043;52.406;9.690;2024-01-07T03:38:21;-1.50;99.90
64634;DHT22;51043;52.406;9.690;2024-01-07T03:40:49;-1.50;99.90
64634;DHT22;51043;52.406;9.690;2024-01-07T03:43:17;-1.50;99.90
64634;DHT22;51043;52.406;9.690;2024-01-07T03:45:45;-1.50;99.90
64634;DHT22;51043;52.406;9.690;2024-01-07T03:48:16;-1.50;99.90
64634;DHT22;51043;52.406;9.690;2024-01-07T03:50:45;-1.50;99.90
64634;DHT22;51043;52.406;9.690;2024-01-07T03:53:15;-1.60;99.90
64634;DHT22;51043;52.406;9.690;2024-01-07T03:55:43;-1.60;99.90
64634;DHT22;51043;52.406;9.690;2024-01-07T03:58:12;-1.60;99.90
64634;DHT22;51043;52.406;9.690;2024-01-07T04:00:40;-1.60;99.90
64634;DHT22;51043;52.406;9.690;2024-01-07T04:03:08;-1.60;99.90
64634;DHT22;51043;52.406;9.690;2024-01-07T04:05:36;-1.60;99.90
64634;DHT22;51043;52.406;9.690;2024-01-07T04:08:09;-1.60;99.90
64634;DHT22;51043;52.406;9.690;2024-01-07T04:10:37;-1.60;99.90
64634;DHT22;51043;52.406;9.690;2024-01-07T04:13:05;-1.60;99.90
64634;DHT22;51043;52.406;9.690;2024-01-07T04:15:33;-1.60;99.90
64634;DHT22;51043;52.406;9.690;2024-01-07T04:18:01;-1.60;99.90
64634;DHT22;51043;52.406;9.690;2024-01-07T04:20:31;-1.60;99.90
64634;DHT22;51043;52.406;9.690;2024-01-07T04:22:59;-1.60;99.90
64634;DHT22;51043;52.406;9.690;2024-01-07T04:25:28;-1.70;99.90
64634;DHT22;51043;52.406;9.690;2024-01-07T04:27:56;-1.70;99.90
64634;DHT22;51043;52.406;9.690;2024-01-07T04:30:25;-1.70;99.90
64634;DHT22;51043;52.406;9.690;2024-01-07T04:32:53;-1.70;99.90
64634;DHT22;51043;52.406;9.690;2024-01-07T04:35:21;-1.80;99.90
64634;DHT22;51043;52.406;9.690;2024-01-07T04:37:49;-1.70;99.90
64634;DHT22;51043;52.406;9.690;2024-01-07T04:40:17;-1.80;99.90
64634;DHT22;51043;52.406;9.690;2024-01-07T04:42:46;-1.80;99.90
64634;DHT22;51043;52.406;9.690;2024-01-07T04:45:14;-1.80;99.90
64634;DHT22;51043;52.406;9.690;2024-01-07T04:47:42;-1.70;99.90
64634;DHT22;51043;52.406;9.690;2024-01-07T04:50:10;-1.80;99.90
64634;DHT22;51043;52.406;9.690;2024-01-07T04:52:40;-1.70;99.90
64634;DHT22;51043;52.406;9.690;2024-01-07T04:55:08;-1.70;99.90
64634;DHT22;51043;52.406;9.690;2024-01-07T04:57:37;-1.70;99.90
64634;DHT22;51043;52.406;9.690;2024-01-07T05:00:10;-1.80;99.90
64634;DHT22;51043;52.406;9.690;2024-01-07T05:02:38;-1.70;99.90
64634;DHT22;51043;52.406;9.690;2024-01-07T05:05:08;-1.80;99.90
64634;DHT22;51043;52.406;9.690;2024-01-07T05:07:37;-1.70;99.90
64634;DHT22;51043;52.406;9.690;2024-01-07T05:10:06;-1.80;99.90
64634;DHT22;51043;52.406;9.690;2024-01-07T05:12:35;-1.80;99.90
64634;DHT22;51043;52.406;9.690;2024-01-07T05:15:03;-1.80;99.90
64634;DHT22;51043;52.406;9.690;2024-01-07T05:17:34;-1.80;99.90
64634;DHT22;51043;52.406;9.690;2024-01-07T05:20:02;-1.80;99.90
64634;DHT22;51043;52.406;9.690;2024-01-07T05:22:30;-1.80;99.90
64634;DHT22;51043;52.406;9.690;2024-01-07T05:25:01;-1.90;99.90
64634;DHT22;51043;52.406;9.690;2024-01-07T05:27:29;-1.80;99.90
64634;DHT22;51043;52.406;9.690;2024-01-07T05:29:57;-1.80;99.90
64634;DHT22;51043;52.406;9.690;2024-01-07T05:32:26;-1.90;99.90
64634;DHT22;51043;52.406;9.690;2024-01-07T05:34:55;-1.80;99.90
64634;DHT22;51043;52.406;9.690;2024-01-07T05:37:23;-1.80;99.90
64634;DHT22;51043;52.406;9.690;2024-01-07T05:39:51;-1.90;99.90
64634;DHT22;51043;52.406;9.690;2024-01-07T05:42:19;-1.80;99.90
64634;DHT22;51043;52.406;9.690;2024-01-07T05:44:47;-1.80;99.90
64634;DHT22;51043;52.406;9.690;2024-01-07T05:47:15;-1.80;99.90
64634;DHT22;51043;52.406;9.690;2024-01-07T05:49:43;-1.80;99.90
64634;DHT22;51043;52.406;9.690;2024-01-07T05:52:13;-1.90;99.90
64634;DHT22;51043;52.406;9.690;2024-01-07T05:54:41;-1.90;99.90
64634;DHT22;51043;52.406;9.690;2024-01-07T05:57:10;-1.90;99.90
64634;DHT22;51043;52.406;9.690;2024-01-07T05:59:38;-1.90;99.90
64634;DHT22;51043;52.406;9.690;2024-01-07T06:02:06;-1.90;99.90
64634;DHT22;51043;52.406;9.690;2024-01-07T06:04:34;-1.90;99.90
64634;DHT22;51043;52.406;9.690;2024-01-07T06:07:03;-2.00;99.90
64634;DHT22;51043;52.406;9.690;2024-01-07T06:09:32;-2.00;99.90
64634;DHT22;51043;52.406;9.690;2024-01-07T06:12:01;-2.10;99.90
64634;DHT22;51043;52.406;9.690;2024-01-07T06:14:29;-2.10;99.90
64634;DHT22;51043;52.406;9.690;2024-01-07T06:16:58;-2.20;99.90
64634;DHT22;51043;52.406;9.690;2024-01-07T06:19:26;-2.20;99.90
64634;DHT22;51043;52.406;9.690;2024-01-07T06:21:54;-2.30;99.90
64634;DHT22;51043;52.406;9.690;2024-01-07T06:24:22;-2.30;99.90
64634;DHT22;51043;52.406;9.690;2024-01-07T06:26:55;-2.40;99.90
64634;DHT22;51043;52.406;9.690;2024-01-07T06:29:23;-2.30;99.90
64634;DHT22;51043;52.406;9.690;2024-01-07T06:31:55;-2.40;99.90
64634;DHT22;51043;52.406;9.690;2024-01-07T06:34:23;-2.50;99.90
64634;DHT22;51043;52.406;9.690;2024-01-07T06:36:52;-2.50;99.90
64634;DHT22;51043;52.406;9.690;2024-01-07T06:39:23;-2.50;99.90
64634;DHT22;51043;52.406;9.690;2024-01-07T06:41:56;-2.60;99.90
64634;DHT22;51043;52.406;9.690;2024-01-07T06:44:26;-2.60;99.90
64634;DHT22;51043;52.406;9.690;2024-01-07T06:46:54;-2.50;99.90
64634;DHT22;51043;52.406;9.690;2024-01-07T06:49:23;-2.60;99.90
64634;DHT22;51043;52.406;9.690;2024-01-07T06:51:51;-2.60;99.90
64634;DHT22;51043;52.406;9.690;2024-01-07T06:54:19;-2.60;99.90
64634;DHT22;51043;52.406;9.690;2024-01-07T06:56:47;-2.60;99.90
64634;DHT22;51043;52.406;9.690;2024-01-07T06:59:16;-2.60;99.90
64634;DHT22;51043;52.406;9.690;2024-01-07T07:01:44;-2.60;99.90
64634;DHT22;51043;52.406;9.690;2024-01-07T07:04:13;-2.60;99.90
64634;DHT22;51043;52.406;9.690;2024-01-07T07:06:41;-2.70;99.90
64634;DHT22;51043;52.406;9.690;2024-01-07T07:09:09;-2.70;99.90
64634;DHT22;51043;52.406;9.690;2024-01-07T07:11:39;-2.70;99.90
64634;DHT22;51043;52.406;9.690;2024-01-07T07:14:07;-2.70;99.90
64634;DHT22;51043;52.406;9.690;2024-01-07T07:16:36;-2.80;99.90
64634;DHT22;51043;52.406;9.690;2024-01-07T07:19:04;-2.80;99.90
64634;DHT22;51043;52.406;9.690;2024-01-07T07:21:36;-2.80;99.90
64634;DHT22;51043;52.406;9.690;2024-01-07T07:24:04;-2.80;99.90
64634;DHT22;51043;52.406;9.690;2024-01-07T07:26:34;-2.90;99.90
64634;DHT22;51043;52.406;9.690;2024-01-07T07:29:07;-2.90;99.90
64634;DHT22;51043;52.406;9.690;2024-01-07T07:31:37;-2.90;99.90
64634;DHT22;51043;52.406;9.690;2024-01-07T07:34:08;-2.80;99.90
64634;DHT22;51043;52.406;9.690;2024-01-07T07:36:36;-2.80;99.90
64634;DHT22;51043;52.406;9.690;2024-01-07T07:39:06;-2.80;99.90
64634;DHT22;51043;52.406;9.690;2024-01-07T07:41:35;-2.70;99.90
64634;DHT22;51043;52.406;9.690;2024-01-07T07:44:06;-2.70;99.90
64634;DHT22;51043;52.406;9.690;2024-01-07T07:46:34;-2.60;99.90
64634;DHT22;51043;52.406;9.690;2024-01-07T07:49:04;-2.60;99.90
64634;DHT22;51043;52.406;9.690;2024-01-07T07:51:32;-2.50;99.90
64634;DHT22;51043;52.406;9.690;2024-01-07T07:54:02;-2.50;99.90
64634;DHT22;51043;52.406;9.690;2024-01-07T07:56:31;-2.50;99.90
64634;DHT22;51043;52.406;9.690;2024-01-07T07:58:58;-2.40;99.90
64634;DHT22;51043;52.406;9.690;2024-01-07T08:01:26;-2.40;99.90
64634;DHT22;51043;52.406;9.690;2024-01-07T08:03:55;-2.50;99.90
64634;DHT22;51043;52.406;9.690;2024-01-07T08:06:26;-2.40;99.90
64634;DHT22;51043;52.406;9.690;2024-01-07T08:08:55;-2.40;99.90
64634;DHT22;51043;52.406;9.690;2024-01-07T08:11:25;-2.30;99.90
64634;DHT22;51043;52.406;9.690;2024-01-07T08:13:54;-2.30;99.90
64634;DHT22;51043;52.406;9.690;2024-01-07T08:16:23;-2.30;99.90
64634;DHT22;51043;52.406;9.690;2024-01-07T08:18:51;-2.30;99.90
64634;DHT22;51043;52.406;9.690;2024-01-07T08:21:19;-2.30;99.90
64634;DHT22;51043;52.406;9.690;2024-01-07T08:23:49;-2.20;99.90
64634;DHT22;51043;52.406;9.690;2024-01-07T08:26:18;-2.20;99.90
64634;DHT22;51043;52.406;9.690;2024-01-07T08:28:46;-2.20;99.90
64634;DHT22;51043;52.406;9.690;2024-01-07T08:31:14;-2.20;99.90
64634;DHT22;51043;52.406;9.690;2024-01-07T08:33:42;-2.10;99.90
64634;DHT22;51043;52.406;9.690;2024-01-07T08:36:10;-2.00;99.90
64634;DHT22;51043;52.406;9.690;2024-01-07T08:38:39;-2.00;99.90
64634;DHT22;51043;52.406;9.690;2024-01-07T08:41:09;-2.00;99.90
64634;DHT22;51043;52.406;9.690;2024-01-07T08:43:40;-2.00;99.90
64634;DHT22;51043;52.406;9.690;2024-01-07T08:46:08;-2.00;99.90
64634;DHT22;51043;52.406;9.690;2024-01-07T08:48:43;-1.90;99.90
64634;DHT22;51043;52.406;9.690;2024-01-07T08:51:11;-1.80;99.90
64634;DHT22;51043;52.406;9.690;2024-01-07T08:53:41;-1.80;99.90
64634;DHT22;51043;52.406;9.690;2024-01-07T08:56:12;-1.80;99.90
64634;DHT22;51043;52.406;9.690;2024-01-07T08:58:49;-1.80;99.90
64634;DHT22;51043;52.406;9.690;2024-01-07T09:01:17;-1.80;99.90
64634;DHT22;51043;52.406;9.690;2024-01-07T09:03:45;-1.80;99.90
64634;DHT22;51043;52.406;9.690;2024-01-07T09:06:13;-1.70;99.90
64634;DHT22;51043;52.406;9.690;2024-01-07T09:08:44;-1.70;99.90
64634;DHT22;51043;52.406;9.690;2024-01-07T09:11:18;-1.60;99.90
64634;DHT22;51043;52.406;9.690;2024-01-07T09:13:46;-1.60;99.90
64634;DHT22;51043;52.406;9.690;2024-01-07T09:16:17;-1.50;99.90
64634;DHT22;51043;52.406;9.690;2024-01-07T09:18:50;-1.60;99.90
64634;DHT22;51043;52.406;9.690;2024-01-07T09:21:19;-1.50;99.90
64634;DHT22;51043;52.406;9.690;2024-01-07T09:23:50;-1.50;99.90
64634;DHT22;51043;52.406;9.690;2024-01-07T09:26:19;-1.50;99.90
64634;DHT22;51043;52.406;9.690;2024-01-07T09:28:48;-1.40;99.90
64634;DHT22;51043;52.406;9.690;2024-01-07T09:31:16;-1.40;99.90
64634;DHT22;51043;52.406;9.690;2024-01-07T09:33:44;-1.40;99.90
64634;DHT22;51043;52.406;9.690;2024-01-07T09:36:12;-1.40;99.90
64634;DHT22;51043;52.406;9.690;2024-01-07T09:38:41;-1.30;99.90
64634;DHT22;51043;52.406;9.690;2024-01-07T09:41:10;-1.30;99.90
64634;DHT22;51043;52.406;9.690;2024-01-07T09:43:39;-1.30;99.90
64634;DHT22;51043;52.406;9.690;2024-01-07T09:46:08;-1.30;99.90
64634;DHT22;51043;52.406;9.690;2024-01-07T09:48:36;-1.30;99.90
64634;DHT22;51043;52.406;9.690;2024-01-07T09:51:06;-1.20;99.90
64634;DHT22;51043;52.406;9.690;2024-01-07T09:53:39;-1.20;99.90
64634;DHT22;51043;52.406;9.690;2024-01-07T09:56:20;-1.20;99.90
64634;DHT22;51043;52.406;9.690;2024-01-07T09:58:52;-1.10;99.90
64634;DHT22;51043;52.406;9.690;2024-01-07T10:01:20;-1.10;99.90
64634;DHT22;51043;52.406;9.690;2024-01-07T10:03:48;-1.10;99.90
64634;DHT22;51043;52.406;9.690;2024-01-07T10:06:18;-1.00;99.90
64634;DHT22;51043;52.406;9.690;2024-01-07T10:08:46;-1.00;99.90
64634;DHT22;51043;52.406;9.690;2024-01-07T10:11:14;-1.00;99.90
64634;DHT22;51043;52.406;9.690;2024-01-07T10:13:45;-0.90;99.90
64634;DHT22;51043;52.406;9.690;2024-01-07T10:16:15;-0.90;99.90
64634;DHT22;51043;52.406;9.690;2024-01-07T10:18:46;-0.90;99.90
64634;DHT22;51043;52.406;9.690;2024-01-07T10:21:15;-0.80;99.90
64634;DHT22;51043;52.406;9.690;2024-01-07T10:23:46;-0.80;99.90
64634;DHT22;51043;52.406;9.690;2024-01-07T10:26:14;-0.80;99.90
64634;DHT22;51043;52.406;9.690;2024-01-07T10:28:45;-0.80;99.90
64634;DHT22;51043;52.406;9.690;2024-01-07T10:31:15;-0.80;99.90
64634;DHT22;51043;52.406;9.690;2024-01-07T10:33:44;-0.80;99.90
64634;DHT22;51043;52.406;9.690;2024-01-07T10:36:12;-0.80;99.90
64634;DHT22;51043;52.406;9.690;2024-01-07T10:38:41;-0.70;99.90
64634;DHT22;51043;52.406;9.690;2024-01-07T10:41:13;-0.60;99.90
64634;DHT22;51043;52.406;9.690;2024-01-07T10:43:46;-0.60;99.90
64634;DHT22;51043;52.406;9.690;2024-01-07T10:46:16;-0.60;99.90
64634;DHT22;51043;52.406;9.690;2024-01-07T10:49:01;-0.60;99.90
64634;DHT22;51043;52.406;9.690;2024-01-07T10:51:34;-0.70;99.90
64634;DHT22;51043;52.406;9.690;2024-01-07T10:54:02;-0.60;99.90
64634;DHT22;51043;52.406;9.690;2024-01-07T10:56:37;-0.60;99.90
64634;DHT22;51043;52.406;9.690;2024-01-07T10:59:06;-0.60;99.90
64634;DHT22;51043;52.406;9.690;2024-01-07T11:01:36;-0.60;99.90
64634;DHT22;51043;52.406;9.690;2024-01-07T11:04:18;-0.60;99.90
64634;DHT22;51043;52.406;9.690;2024-01-07T11:06:55;-0.50;99.90
64634;DHT22;51043;52.406;9.690;2024-01-07T11:09:31;-0.50;99.90
64634;DHT22;51043;52.406;9.690;2024-01-07T11:12:02;-0.50;99.90
64634;DHT22;51043;52.406;9.690;2024-01-07T11:14:35;-0.60;99.90
64634;DHT22;51043;52.406;9.690;2024-01-07T11:17:06;-0.60;99.90
64634;DHT22;51043;52.406;9.690;2024-01-07T11:19:35;-0.40;99.90
64634;DHT22;51043;52.406;9.690;2024-01-07T11:22:23;-0.50;99.90
64634;DHT22;51043;52.406;9.690;2024-01-07T11:24:51;-0.50;99.90
64634;DHT22;51043;52.406;9.690;2024-01-07T11:27:21;-0.50;99.90
64634;DHT22;51043;52.406;9.690;2024-01-07T11:29:53;-0.50;99.90
64634;DHT22;51043;52.406;9.690;2024-01-07T11:32:25;-0.40;99.90
64634;DHT22;51043;52.406;9.690;2024-01-07T11:34:56;-0.50;99.90
64634;DHT22;51043;52.406;9.690;2024-01-07T11:37:26;-0.40;99.90
64634;DHT22;51043;52.406;9.690;2024-01-07T11:39:56;-0.50;99.90
64634;DHT22;51043;52.406;9.690;2024-01-07T11:42:24;-0.50;99.90
64634;DHT22;51043;52.406;9.690;2024-01-07T11:44:53;-0.40;99.90
64634;DHT22;51043;52.406;9.690;2024-01-07T11:47:24;-0.40;99.90
64634;DHT22;51043;52.406;9.690;2024-01-07T11:49:52;-0.40;99.90
64634;DHT22;51043;52.406;9.690;2024-01-07T11:52:21;-0.40;99.90
64634;DHT22;51043;52.406;9.690;2024-01-07T11:54:50;-0.40;99.90
64634;DHT22;51043;52.406;9.690;2024-01-07T11:57:19;-0.40;99.90
64634;DHT22;51043;52.406;9.690;2024-01-07T11:59:47;-0.40;99.90
64634;DHT22;51043;52.406;9.690;2024-01-07T12:02:16;-0.40;99.90
64634;DHT22;51043;52.406;9.690;2024-01-07T12:04:49;-0.30;99.90
64634;DHT22;51043;52.406;9.690;2024-01-07T12:07:18;-0.20;99.90
64634;DHT22;51043;52.406;9.690;2024-01-07T12:09:55;-0.20;99.90
64634;DHT22;51043;52.406;9.690;2024-01-07T12:12:24;-0.10;99.90
64634;DHT22;51043;52.406;9.690;2024-01-07T12:14:55;-0.10;99.90
64634;DHT22;51043;52.406;9.690;2024-01-07T12:17:26;-0.10;99.90
64634;DHT22;51043;52.406;9.690;2024-01-07T12:19:56;0.00;99.90
64634;DHT22;51043;52.406;9.690;2024-01-07T12:22:23;0.00;99.90
64634;DHT22;51043;52.406;9.690;2024-01-07T12:25:00;0.00;99.90
64634;DHT22;51043;52.406;9.690;2024-01-07T12:27:29;0.00;99.90
64634;DHT22;51043;52.406;9.690;2024-01-07T12:29:58;0.00;99.90
64634;DHT22;51043;52.406;9.690;2024-01-07T12:32:26;0.00;99.90
64634;DHT22;51043;52.406;9.690;2024-01-07T12:34:58;0.10;99.90
64634;DHT22;51043;52.406;9.690;2024-01-07T12:37:28;0.00;99.90
64634;DHT22;51043;52.406;9.690;2024-01-07T12:39:59;0.10;99.90
64634;DHT22;51043;52.406;9.690;2024-01-07T12:42:27;0.10;99.90
64634;DHT22;51043;52.406;9.690;2024-01-07T12:44:55;0.10;99.90
64634;DHT22;51043;52.406;9.690;2024-01-07T12:47:23;0.20;99.90
64634;DHT22;51043;52.406;9.690;2024-01-07T12:49:51;0.20;99.90
64634;DHT22;51043;52.406;9.690;2024-01-07T12:52:20;0.20;99.90
64634;DHT22;51043;52.406;9.690;2024-01-07T12:54:51;0.20;99.90
64634;DHT22;51043;52.406;9.690;2024-01-07T12:57:20;0.20;99.90
64634;DHT22;51043;52.406;9.690;2024-01-07T12:59:52;0.30;99.90
64634;DHT22;51043;52.406;9.690;2024-01-07T13:02:20;0.30;99.90
64634;DHT22;51043;52.406;9.690;2024-01-07T13:04:48;0.30;99.90
64634;DHT22;51043;52.406;9.690;2024-01-07T13:07:18;0.40;99.90
64634;DHT22;51043;52.406;9.690;2024-01-07T13:09:51;0.40;99.90
64634;DHT22;51043;52.406;9.690;2024-01-07T13:12:19;0.40;99.90
64634;DHT22;51043;52.406;9.690;2024-01-07T13:14:47;0.40;99.90
64634;DHT22;51043;52.406;9.690;2024-01-07T13:17:18;0.50;99.90
64634;DHT22;51043;52.406;9.690;2024-01-07T13:19:46;0.50;99.90
64634;DHT22;51043;52.406;9.690;2024-01-07T13:22:18;0.50;99.90
64634;DHT22;51043;52.406;9.690;2024-01-07T13:24:52;0.40;99.90
64634;DHT22;51043;52.406;9.690;2024-01-07T13:27:21;0.50;99.90
64634;DHT22;51043;52.406;9.690;2024-01-07T13:29:51;0.50;99.90
64634;DHT22;51043;52.406;9.690;2024-01-07T13:32:19;0.40;99.90
64634;DHT22;51043;52.406;9.690;2024-01-07T13:34:48;0.40;99.90
64634;DHT22;51043;52.406;9.690;2024-01-07T13:37:21;0.30;99.90
64634;DHT22;51043;52.406;9.690;2024-01-07T13:39:57;0.20;99.90
64634;DHT22;51043;52.406;9.690;2024-01-07T13:42:26;0.20;99.90
64634;DHT22;51043;52.406;9.690;2024-01-07T13:44:54;0.20;99.90
64634;DHT22;51043;52.406;9.690;2024-01-07T13:47:22;0.10;99.90
64634;DHT22;51043;52.406;9.690;2024-01-07T13:49:50;0.00;99.90
64634;DHT22;51043;52.406;9.690;2024-01-07T13:52:19;0.00;99.90
64634;DHT22;51043;52.406;9.690;2024-01-07T13:54:52;0.00;99.90
64634;DHT22;51043;52.406;9.690;2024-01-07T13:57:21;0.00;99.90
64634;DHT22;51043;52.406;9.690;2024-01-07T13:59:49;0.00;99.90
64634;DHT22;51043;52.406;9.690;2024-01-07T14:02:20;0.00;99.90
64634;DHT22;51043;52.406;9.690;2024-01-07T14:04:52;0.00;99.90
64634;DHT22;51043;52.406;9.690;2024-01-07T14:07:21;-0.10;99.90
64634;DHT22;51043;52.406;9.690;2024-01-07T14:09:51;-0.10;99.90
64634;DHT22;51043;52.406;9.690;2024-01-07T14:12:19;-0.20;99.90
64634;DHT22;51043;52.406;9.690;2024-01-07T14:14:47;-0.20;99.90
64634;DHT22;51043;52.406;9.690;2024-01-07T14:17:17;-0.30;99.90
64634;DHT22;51043;52.406;9.690;2024-01-07T14:19:45;-0.40;99.90
64634;DHT22;51043;52.406;9.690;2024-01-07T14:22:14;-0.50;99.90
64634;DHT22;51043;52.406;9.690;2024-01-07T14:24:43;-0.50;99.90
64634;DHT22;51043;52.406;9.690;2024-01-07T14:27:20;-0.50;99.90
64634;DHT22;51043;52.406;9.690;2024-01-07T14:29:56;-0.60;99.90
64634;DHT22;51043;52.406;9.690;2024-01-07T14:32:23;-0.70;99.90
64634;DHT22;51043;52.406;9.690;2024-01-07T14:34:51;-0.70;99.90
64634;DHT22;51043;52.406;9.690;2024-01-07T14:37:19;-0.60;99.90
64634;DHT22;51043;52.406;9.690;2024-01-07T14:39:48;-0.70;99.90
64634;DHT22;51043;52.406;9.690;2024-01-07T14:42:19;-0.70;99.90
64634;DHT22;51043;52.406;9.690;2024-01-07T14:44:47;-0.80;99.90
64634;DHT22;51043;52.406;9.690;2024-01-07T14:47:18;-0.80;99.90
64634;DHT22;51043;52.406;9.690;2024-01-07T14:49:46;-0.80;99.90
64634;DHT22;51043;52.406;9.690;2024-01-07T14:52:14;-0.90;99.90
64634;DHT22;51043;52.406;9.690;2024-01-07T14:54:42;-0.90;99.90
64634;DHT22;51043;52.406;9.690;2024-01-07T14:57:10;-1.00;99.90
64634;DHT22;51043;52.406;9.690;2024-01-07T14:59:40;-1.10;99.90
64634;DHT22;51043;52.406;9.690;2024-01-07T15:02:08;-1.20;99.90
64634;DHT22;51043;52.406;9.690;2024-01-07T15:04:37;-1.20;99.90
64634;DHT22;51043;52.406;9.690;2024-01-07T15:07:05;-1.30;99.90
64634;DHT22;51043;52.406;9.690;2024-01-07T15:09:33;-1.40;99.90
64634;DHT22;51043;52.406;9.690;2024-01-07T15:12:01;-1.50;99.90
64634;DHT22;51043;52.406;9.690;2024-01-07T15:14:29;-1.60;99.90
64634;DHT22;51043;52.406;9.690;2024-01-07T15:16:59;-1.60;99.90
64634;DHT22;51043;52.406;9.690;2024-01-07T15:19:30;-1.60;99.90
64634;DHT22;51043;52.406;9.690;2024-01-07T15:21:58;-1.70;99.90
64634;DHT22;51043;52.406;9.690;2024-01-07T15:24:27;-1.80;99.90
64634;DHT22;51043;52.406;9.690;2024-01-07T15:26:55;-1.90;99.90
64634;DHT22;51043;52.406;9.690;2024-01-07T15:29:24;-2.00;99.90
64634;DHT22;51043;52.406;9.690;2024-01-07T15:31:52;-2.10;99.90
64634;DHT22;51043;52.406;9.690;2024-01-07T15:34:21;-2.10;99.90
64634;DHT22;51043;52.406;9.690;2024-01-07T15:36:50;-2.00;99.90
64634;DHT22;51043;52.406;9.690;2024-01-07T15:39:21;-2.20;99.90
64634;DHT22;51043;52.406;9.690;2024-01-07T15:41:49;-2.20;99.90
64634;DHT22;51043;52.406;9.690;2024-01-07T15:44:18;-2.30;99.90
64634;DHT22;51043;52.406;9.690;2024-01-07T15:46:46;-2.40;99.90